Time;durP1;ratioP1;P1;durP2;ratioP2;P2;SDS_P1;SDS_P2;PMS_P1;PMS_P2;Temp;Humidity;BMP_temperature;BMP_pressure;BME280_temperature;BME280_humidity;BME280_pressure;Samples;Min_cycle;Max_cycle;Signal;HPM_P1;HPM_P2
2023/04/14 00:02:08;;;;;;;;;;;;;;;13.92;93.31;98003.16;4937584;28;19957;-42
2023/04/14 00:04:33;;;;;;;;;;;;;;;13.62;95.49;98031.72;4939943;28;20012;-42
2023/04/14 00:06:59;;;;;;;;;;;;;;;14.01;93.50;98000.81;4940146;28;19926;-43
2023/04/14 00:09:24;;;;;;;;;;;;;;;14.50;92.50;97980.53;4941682;28;19948;-43
2023/04/14 00:11:50;;;;;;;;;;;;;;;14.44;91.82;97971.41;4939059;28;19932;-43
2023/04/14 00:14:15;;;;;;;;;;;;;;;14.25;92.53;97987.25;4941876;28;19968;-42
2023/04/14 00:16:41;;;;;;;;;;;;;;;14.32;92.25;97987.69;4940215;28;19936;-42
2023/04/14 00:19:07;;;;;;;;;;;;;;;13.93;93.10;98002.22;4938842;28;19945;-42
2023/04/14 00:21:32;;;;;;;;;;;;;;;14.07;95.14;98022.06;4941296;28;20680;-42
2023/04/14 00:23:57;;;;;;;;;;;;;;;14.06;93.08;97999.72;4939000;28;19961;-42
2023/04/14 00:26:22;;;;;;;;;;;;;;;14.12;92.78;97997.56;4940113;28;20514;-43
2023/04/14 00:28:48;;;;;;;;;;;;;;;14.03;94.14;98018.84;4938763;28;19926;-42
2023/04/14 00:31:13;;;;;;;;;;;;;;;13.89;94.29;98021.44;4940256;28;20721;-42
2023/04/14 00:33:38;;;;;;;;;;;;;;;14.13;93.64;98012.16;4939090;28;19930;-42
2023/04/14 00:36:03;;;;;;;;;;;;;;;13.65;94.14;98027.19;4936997;28;20498;-42
2023/04/14 00:38:29;;;;;;;;;;;;;;;14.05;93.30;98010.97;4937866;28;20355;-42
2023/04/14 00:40:54;;;;;;;;;;;;;;;13.81;92.72;98006.38;4939803;28;19926;-42
2023/04/14 00:43:19;;;;;;;;;;;;;;;13.82;94.12;98026.16;4941025;28;19941;-43
2023/04/14 00:45:45;;;;;;;;;;;;;;;13.69;94.67;98036.44;4941444;28;19945;-42
2023/04/14 00:48:10;;;;;;;;;;;;;;;13.63;94.25;98036.78;4936916;28;20020;-42
2023/04/14 00:50:36;;;;;;;;;;;;;;;13.83;93.35;98021.84;4939331;28;20359;-42
2023/04/14 00:53:01;;;;;;;;;;;;;;;13.64;94.43;98038.47;4938562;28;20622;-42
2023/04/14 00:55:26;;;;;;;;;;;;;;;13.30;95.61;98050.81;4940894;28;20851;-42
2023/04/14 00:57:51;;;;;;;;;;;;;;;13.83;94.48;98034.78;4936076;28;20393;-42
2023/04/14 01:00:17;;;;;;;;;;;;;;;13.77;94.12;98041.13;4938253;28;19926;-42
2023/04/14 01:02:42;;;;;;;;;;;;;;;13.74;93.14;98026.63;4942431;28;19933;-43
2023/04/14 01:05:07;;;;;;;;;;;;;;;13.59;95.09;98051.69;4939020;28;19926;-42
2023/04/14 01:07:32;;;;;;;;;;;;;;;12.68;94.84;98052.59;4938883;28;19938;-43
2023/04/14 01:09:58;;;;;;;;;;;;;;;13.58;95.46;98049.19;4939636;28;19918;-43
2023/04/14 01:12:41;;;;;;;;;;;;;;;12.88;95.79;98054.88;4938870;28;20007;-43
2023/04/14 01:15:33;;;;;;;;;;;;;;;13.47;96.04;98057.56;4939661;28;19994;-43
2023/04/14 01:18:07;;;;;;;;;;;;;;;12.80;97.04;98069.19;4937286;28;19932;-43
2023/04/14 01:20:43;;;;;;;;;;;;;;;13.04;96.45;98065.19;4940115;28;20041;-43
2023/04/14 01:23:10;;;;;;;;;;;;;;;13.09;95.37;98064.94;4949501;28;20014;-43
2023/04/14 01:25:48;;;;;;;;;;;;;;;12.87;95.24;98060.16;4939289;28;19926;-42
2023/04/14 01:28:16;;;;;;;;;;;;;;;12.51;97.89;98087.94;4953684;28;20378;-43
2023/04/14 01:31:02;;;;;;;;;;;;;;;12.91;96.64;98070.25;4943618;28;19953;-43
2023/04/14 01:33:27;;;;;;;;;;;;;;;13.06;96.50;98067.69;4949663;28;19918;-43
2023/04/14 01:35:54;;;;;;;;;;;;;;;12.13;98.34;98101.16;4939089;28;19929;-43
2023/04/14 01:38:26;;;;;;;;;;;;;;;12.58;98.97;98092.78;4939910;28;19922;-43
2023/04/14 01:40:51;;;;;;;;;;;;;;;12.18;99.96;98102.66;4939122;28;19926;-43
2023/04/14 01:43:17;;;;;;;;;;;;;;;12.58;100.00;98103.09;4937693;28;19932;-43
2023/04/14 01:45:43;;;;;;;;;;;;;;;12.41;100.00;98112.59;4935929;28;19922;-43
2023/04/14 01:48:08;;;;;;;;;;;;;;;12.45;99.84;98101.19;4939240;28;20012;-43
2023/04/14 01:50:34;;;;;;;;;;;;;;;12.33;99.97;98101.84;4937744;28;21020;-42
2023/04/14 01:52:59;;;;;;;;;;;;;;;12.36;99.74;98101.66;4937786;28;20445;-43
2023/04/14 01:55:25;;;;;;;;;;;;;;;12.53;98.88;98091.28;4938676;28;20524;-43
2023/04/14 01:57:50;;;;;;;;;;;;;;;12.76;98.33;98091.75;4939914;28;20653;-43
2023/04/14 02:00:16;;;;;;;;;;;;;;;12.79;96.15;98070.91;4939668;28;19922;-43
2023/04/14 02:02:41;;;;;;;;;;;;;;;11.64;99.28;98108.81;4940662;28;20375;-43
2023/04/14 02:05:07;;;;;;;;;;;;;;;13.01;97.20;98060.19;4938296;28;20067;-43
2023/04/14 02:07:33;;;;;;;;;;;;;;;12.01;98.78;98095.81;4941430;28;19979;-43
2023/04/14 02:09:58;;;;;;;;;;;;;;;12.27;99.37;98092.69;4940123;28;19926;-43
2023/04/14 02:12:23;;;;;;;;;;;;;;;12.46;99.56;98087.34;4938714;28;19926;-42
2023/04/14 02:14:49;;;;;;;;;;;;;;;12.74;98.16;98076.34;4939189;28;19922;-43
2023/04/14 02:17:15;;;;;;;;;;;;;;;12.25;98.24;98091.09;4941964;28;19978;-43
2023/04/14 02:19:40;;;;;;;;;;;;;;;11.96;99.19;98090.88;4939407;28;20461;-43
2023/04/14 02:22:05;;;;;;;;;;;;;;;12.34;99.69;98095.78;4937647;28;19926;-44
2023/04/14 02:24:31;;;;;;;;;;;;;;;12.21;100.00;98105.09;4940351;28;19933;-43
2023/04/14 02:27:06;;;;;;;;;;;;;;;12.05;100.00;98115.38;4937288;28;19952;-43
2023/04/14 02:29:31;;;;;;;;;;;;;;;11.99;100.00;98110.53;4937637;28;19921;-43
2023/04/14 02:32:03;;;;;;;;;;;;;;;12.38;99.30;98092.09;4937381;28;19936;-42
2023/04/14 02:34:35;;;;;;;;;;;;;;;11.39;100.00;98110.97;4936504;28;19925;-43
2023/04/14 02:37:07;;;;;;;;;;;;;;;11.26;100.00;98142.47;4936882;28;20162;-42
2023/04/14 02:39:36;;;;;;;;;;;;;;;11.63;100.00;98145.84;4937115;28;20295;-44
2023/04/14 02:42:02;;;;;;;;;;;;;;;11.53;100.00;98147.19;4951335;28;20408;-43
2023/04/14 02:44:28;;;;;;;;;;;;;;;11.50;100.00;98134.47;4934354;28;21408;-43
2023/04/14 02:47:02;;;;;;;;;;;;;;;11.86;100.00;98129.22;4936978;28;19953;-44
2023/04/14 02:49:27;;;;;;;;;;;;;;;11.55;100.00;98129.91;4939098;28;19915;-43
2023/04/14 02:51:53;;;;;;;;;;;;;;;11.97;100.00;98123.50;4921418;28;19933;-43
2023/04/14 02:54:18;;;;;;;;;;;;;;;11.51;100.00;98130.97;4934604;28;20225;-43
2023/04/14 02:56:43;;;;;;;;;;;;;;;11.87;100.00;98143.78;4933879;28;20017;-43
2023/04/14 02:59:08;;;;;;;;;;;;;;;12.28;100.00;98124.50;4935134;28;20008;-43
2023/04/14 03:01:34;;;;;;;;;;;;;;;12.72;100.00;98108.34;4933637;28;19935;-43
2023/04/14 03:03:59;;;;;;;;;;;;;;;12.80;99.35;98098.44;4932268;28;20232;-43
2023/04/14 03:06:25;;;;;;;;;;;;;;;12.43;99.02;98110.78;4953152;28;20102;-43
2023/04/14 03:08:50;;;;;;;;;;;;;;;12.72;98.95;98105.75;4935566;28;20135;-43
2023/04/14 03:11:15;;;;;;;;;;;;;;;11.12;100.00;98170.66;4932851;28;19926;-43
2023/04/14 03:13:40;;;;;;;;;;;;;;;12.11;100.00;98152.03;4934673;28;20227;-43
2023/04/14 03:16:06;;;;;;;;;;;;;;;12.41;100.00;98132.44;4935784;28;20121;-43
2023/04/14 03:18:31;;;;;;;;;;;;;;;11.97;100.00;98144.16;4936178;28;19918;-43
2023/04/14 03:20:59;;;;;;;;;;;;;;;11.75;100.00;98153.88;4935117;28;19965;-43
2023/04/14 03:23:24;;;;;;;;;;;;;;;11.55;100.00;98150.53;4934770;28;19927;-43
2023/04/14 03:25:50;;;;;;;;;;;;;;;12.50;100.00;98134.53;4935398;28;19980;-48
2023/04/14 03:28:15;;;;;;;;;;;;;;;12.33;100.00;98150.91;4933689;28;19967;-48
2023/04/14 03:30:42;;;;;;;;;;;;;;;10.58;100.00;98190.34;4936949;28;20368;-48
2023/04/14 03:33:07;;;;;;;;;;;;;;;12.13;100.00;98173.44;4934378;28;19987;-48
2023/04/14 03:35:33;;;;;;;;;;;;;;;12.50;100.00;98158.59;4935319;28;19922;-48
2023/04/14 03:37:59;;;;;;;;;;;;;;;12.40;100.00;98154.81;4931633;28;19936;-48
2023/04/14 03:40:30;;;;;;;;;;;;;;;12.29;100.00;98164.88;4935592;28;19929;-49
2023/04/14 03:42:59;;;;;;;;;;;;;;;12.00;100.00;98174.16;4920786;28;19926;-48
2023/04/14 03:45:24;;;;;;;;;;;;;;;11.79;100.00;98183.75;4934109;28;20228;-48
2023/04/14 03:47:52;;;;;;;;;;;;;;;11.96;100.00;98181.19;4935514;28;20143;-48
2023/04/14 03:50:17;;;;;;;;;;;;;;;12.17;100.00;98160.34;4934936;28;19923;-49
2023/04/14 03:52:42;;;;;;;;;;;;;;;12.47;100.00;98158.72;4932928;28;19967;-48
2023/04/14 03:55:08;;;;;;;;;;;;;;;11.53;100.00;98175.56;4930570;28;19929;-48
2023/04/14 03:57:33;;;;;;;;;;;;;;;11.81;100.00;98172.44;4934223;28;19929;-48
2023/04/14 03:59:59;;;;;;;;;;;;;;;12.41;100.00;98150.50;4934300;28;20570;-48
2023/04/14 04:02:25;;;;;;;;;;;;;;;11.59;100.00;98170.13;4932145;28;19923;-48
2023/04/14 04:04:52;;;;;;;;;;;;;;;11.85;100.00;98175.72;4934101;28;19982;-48
2023/04/14 04:07:17;;;;;;;;;;;;;;;12.51;100.00;98139.59;4949204;28;19984;-48
2023/04/14 04:09:42;;;;;;;;;;;;;;;12.08;100.00;98146.19;4951001;28;20053;-47
2023/04/14 04:12:08;;;;;;;;;;;;;;;12.01;100.00;98166.31;4934108;28;19980;-48
2023/04/14 04:14:34;;;;;;;;;;;;;;;11.80;100.00;98159.63;4934840;28;19934;-48
2023/04/14 04:17:01;;;;;;;;;;;;;;;11.81;100.00;98146.63;4933639;28;20439;-48
2023/04/14 04:19:26;;;;;;;;;;;;;;;11.64;100.00;98169.88;4932494;28;19937;-48
2023/04/14 04:21:52;;;;;;;;;;;;;;;11.33;100.00;98178.28;4934468;28;20034;-48
2023/04/14 04:24:18;;;;;;;;;;;;;;;11.48;100.00;98191.25;4929800;28;20025;-48
2023/04/14 04:26:43;;;;;;;;;;;;;;;11.61;100.00;98173.44;4914753;28;19931;-48
2023/04/14 04:29:09;;;;;;;;;;;;;;;12.24;100.00;98135.88;4933899;28;20092;-48
2023/04/14 04:31:34;;;;;;;;;;;;;;;11.82;100.00;98150.06;4933343;28;19922;-48
2023/04/14 04:33:59;;;;;;;;;;;;;;;11.37;100.00;98161.75;4932726;28;19926;-47
2023/04/14 04:36:25;;;;;;;;;;;;;;;10.84;100.00;98195.16;4932403;28;19921;-48
2023/04/14 04:38:50;;;;;;;;;;;;;;;10.92;100.00;98204.25;4930186;28;20119;-47
2023/04/14 04:41:22;;;;;;;;;;;;;;;11.42;100.00;98188.13;4934164;28;19926;-48
2023/04/14 04:43:47;;;;;;;;;;;;;;;11.15;100.00;98204.00;4935512;28;20902;-47
2023/04/14 04:46:31;;;;;;;;;;;;;;;11.66;100.00;98170.66;4934382;28;19926;-48
2023/04/14 04:48:56;;;;;;;;;;;;;;;12.20;100.00;98142.13;4931201;28;19958;-48
2023/04/14 04:51:22;;;;;;;;;;;;;;;11.22;100.00;98165.91;4935012;28;20455;-47
2023/04/14 04:53:47;;;;;;;;;;;;;;;11.35;100.00;98176.47;4932911;28;19950;-48
2023/04/14 04:56:12;;;;;;;;;;;;;;;11.48;100.00;98172.38;4932302;28;19922;-48
2023/04/14 04:58:37;;;;;;;;;;;;;;;11.77;100.00;98162.34;4931650;28;19933;-48
2023/04/14 05:01:06;;;;;;;;;;;;;;;11.54;100.00;98182.41;4933627;28;20491;-48
2023/04/14 05:03:32;;;;;;;;;;;;;;;11.70;100.00;98173.00;4934408;28;20229;-48
2023/04/14 05:05:57;;;;;;;;;;;;;;;11.61;100.00;98163.13;4950400;28;20457;-47
2023/04/14 05:08:23;;;;;;;;;;;;;;;10.79;100.00;98209.16;4933047;28;19926;-48
2023/04/14 05:10:48;;;;;;;;;;;;;;;11.89;100.00;98183.25;4934752;28;20014;-48
2023/04/14 05:13:13;;;;;;;;;;;;;;;12.11;100.00;98157.19;4934712;28;20063;-48
2023/04/14 05:15:38;;;;;;;;;;;;;;;11.51;100.00;98182.53;4934824;28;20013;-48
2023/04/14 05:18:03;;;;;;;;;;;;;;;10.59;100.00;98215.19;4932537;28;20057;-47
2023/04/14 05:20:29;;;;;;;;;;;;;;;11.21;100.00;98214.03;4934269;28;19926;-47
2023/04/14 05:22:54;;;;;;;;;;;;;;;9.26;100.00;98262.66;4933427;28;20009;-47
2023/04/14 05:25:19;;;;;;;;;;;;;;;9.84;100.00;98275.81;4932564;28;19996;-42
2023/04/14 05:27:45;;;;;;;;;;;;;;;11.01;100.00;98247.63;4933181;28;19927;-43
2023/04/14 05:30:10;;;;;;;;;;;;;;;9.95;100.00;98240.19;4934130;28;20012;-43
2023/04/14 05:32:35;;;;;;;;;;;;;;;11.27;100.00;98221.50;4930372;28;20697;-43
2023/04/14 05:35:01;;;;;;;;;;;;;;;9.68;100.00;98264.47;4933115;28;19984;-43
2023/04/14 05:37:28;;;;;;;;;;;;;;;9.39;100.00;98289.56;4927452;28;20398;-43
2023/04/14 05:39:53;;;;;;;;;;;;;;;9.59;100.00;98297.34;4931095;28;20177;-43
2023/04/14 05:42:19;;;;;;;;;;;;;;;10.11;100.00;98284.13;4932721;28;19956;-43
2023/04/14 05:44:44;;;;;;;;;;;;;;;10.51;100.00;98271.31;4934266;28;19926;-43
2023/04/14 05:47:09;;;;;;;;;;;;;;;11.43;100.00;98241.38;4933143;28;20155;-43
2023/04/14 05:49:35;;;;;;;;;;;;;;;12.20;100.00;98204.06;4934336;28;20215;-42
2023/04/14 05:52:00;;;;;;;;;;;;;;;12.12;100.00;98200.16;4931879;28;20600;-42
2023/04/14 05:54:25;;;;;;;;;;;;;;;12.67;100.00;98190.44;4932671;28;19926;-43
2023/04/14 05:56:50;;;;;;;;;;;;;;;12.99;100.00;98180.94;4932091;28;19929;-43
2023/04/14 05:59:16;;;;;;;;;;;;;;;13.42;100.00;98163.06;4933025;28;19973;-43
2023/04/14 06:01:41;;;;;;;;;;;;;;;13.60;100.00;98158.56;4932299;28;19921;-43
2023/04/14 06:04:06;;;;;;;;;;;;;;;13.71;100.00;98152.78;4936100;28;19932;-43
2023/04/14 06:06:32;;;;;;;;;;;;;;;13.68;100.00;98158.13;4933874;28;19927;-43
2023/04/14 06:08:57;;;;;;;;;;;;;;;13.70;100.00;98162.28;4932307;28;20011;-43
2023/04/14 06:11:22;;;;;;;;;;;;;;;13.99;100.00;98164.94;4930374;28;20629;-44
2023/04/14 06:13:47;;;;;;;;;;;;;;;13.93;100.00;98162.69;4931435;28;20567;-42
2023/04/14 06:16:13;;;;;;;;;;;;;;;14.04;100.00;98144.78;4934968;28;21071;-43
2023/04/14 06:18:38;;;;;;;;;;;;;;;13.64;100.00;98156.63;4935778;28;19985;-43
2023/04/14 06:21:03;;;;;;;;;;;;;;;13.91;100.00;98149.88;4931429;28;20256;-43
2023/04/14 06:23:30;;;;;;;;;;;;;;;14.37;100.00;98125.53;4936198;28;20477;-43
2023/04/14 06:25:56;;;;;;;;;;;;;;;14.85;100.00;98110.47;4935667;28;20230;-44
2023/04/14 06:28:22;;;;;;;;;;;;;;;15.03;99.86;98111.88;4933253;28;20303;-43
2023/04/14 06:30:48;;;;;;;;;;;;;;;14.67;99.58;98109.03;4937098;28;19933;-43
2023/04/14 06:33:13;;;;;;;;;;;;;;;15.34;98.19;98091.72;4937298;28;19922;-43
2023/04/14 06:35:38;;;;;;;;;;;;;;;14.55;97.50;98106.28;4935135;28;20011;-43
2023/04/14 06:38:04;;;;;;;;;;;;;;;13.31;98.76;98124.88;4933132;28;20978;-43
2023/04/14 06:40:29;;;;;;;;;;;;;;;14.45;97.08;98094.78;4940322;28;20929;-43
2023/04/14 06:42:54;;;;;;;;;;;;;;;14.44;95.83;98090.56;4935823;28;19930;-43
2023/04/14 06:45:20;;;;;;;;;;;;;;;14.69;97.11;98094.19;4936453;28;20437;-43
2023/04/14 06:47:45;;;;;;;;;;;;;;;14.62;97.60;98098.97;4936409;28;21224;-42
2023/04/14 06:50:11;;;;;;;;;;;;;;;15.57;97.13;98081.56;4935642;28;20423;-43
2023/04/14 06:52:36;;;;;;;;;;;;;;;15.18;97.08;98086.69;4935550;28;20339;-43
2023/04/14 06:55:02;;;;;;;;;;;;;;;15.84;96.03;98076.31;4933272;28;20057;-44
2023/04/14 06:57:27;;;;;;;;;;;;;;;15.98;94.60;98070.16;4935293;28;20375;-43
2023/04/14 06:59:52;;;;;;;;;;;;;;;16.21;93.94;98060.78;4936179;28;20110;-43
2023/04/14 07:02:17;;;;;;;;;;;;;;;16.26;93.30;98064.72;4933849;28;19926;-43
2023/04/14 07:04:43;;;;;;;;;;;;;;;16.86;92.10;98052.66;4934297;28;19922;-43
2023/04/14 07:07:08;;;;;;;;;;;;;;;16.10;94.48;98079.69;4936590;28;19932;-43
2023/04/14 07:09:33;;;;;;;;;;;;;;;16.48;92.75;98063.19;4936360;28;20391;-43
2023/04/14 07:12:00;;;;;;;;;;;;;;;16.14;97.56;98106.31;4936567;28;19940;-43
2023/04/14 07:14:25;;;;;;;;;;;;;;;16.47;96.17;98087.53;4933973;28;19926;-43
2023/04/14 07:16:52;;;;;;;;;;;;;;;16.02;94.78;98079.41;4934208;28;20876;-43
2023/04/14 07:19:18;;;;;;;;;;;;;;;15.92;95.89;98091.34;4935608;28;20723;-44
2023/04/14 07:21:44;;;;;;;;;;;;;;;15.56;93.52;98085.09;4936144;28;19933;-43
2023/04/14 07:24:09;;;;;;;;;;;;;;;17.07;92.30;98055.47;4937944;28;19934;-44
2023/04/14 07:26:35;;;;;;;;;;;;;;;16.80;90.44;98045.31;4936137;28;19922;-43
2023/04/14 07:29:00;;;;;;;;;;;;;;;18.54;86.75;98011.22;4935356;28;19927;-43
2023/04/14 07:31:25;;;;;;;;;;;;;;;18.65;83.15;97992.94;4935598;28;20361;-43
2023/04/14 07:33:51;;;;;;;;;;;;;;;17.37;83.73;98028.09;4933675;28;19980;-43
2023/04/14 07:36:17;;;;;;;;;;;;;;;17.60;87.09;98044.56;4934911;28;19926;-44
2023/04/14 07:38:42;;;;;;;;;;;;;;;17.44;86.92;98047.50;4932219;28;19961;-43
2023/04/14 07:41:07;;;;;;;;;;;;;;;17.69;84.30;98030.03;4935840;28;20315;-44
2023/04/14 07:43:36;;;;;;;;;;;;;;;14.26;94.93;98130.53;4937127;28;20161;-44
2023/04/14 07:46:04;;;;;;;;;;;;;;;15.57;95.29;98102.31;4934875;28;19922;-42
2023/04/14 07:48:33;;;;;;;;;;;;;;;14.34;95.64;98123.13;4935812;28;20295;-43
2023/04/14 07:50:58;;;;;;;;;;;;;;;14.46;95.47;98111.16;4934861;28;19965;-43
2023/04/14 07:53:23;;;;;;;;;;;;;;;18.50;88.62;98026.31;4934551;28;20338;-43
2023/04/14 07:55:48;;;;;;;;;;;;;;;16.57;85.53;98041.75;4932393;28;19957;-42
2023/04/14 07:58:14;;;;;;;;;;;;;;;18.37;85.49;98026.44;4934822;28;20006;-43
2023/04/14 08:00:39;;;;;;;;;;;;;;;19.27;80.87;97993.13;4933757;28;20485;-43
2023/04/14 08:03:04;;;;;;;;;;;;;;;16.89;84.57;98051.63;4934916;28;19926;-43
2023/04/14 08:05:29;;;;;;;;;;;;;;;19.19;81.86;98007.66;4934428;28;20091;-43
2023/04/14 08:07:55;;;;;;;;;;;;;;;16.37;88.94;98091.72;4934162;28;20475;-43
2023/04/14 08:10:20;;;;;;;;;;;;;;;15.98;90.47;98094.38;4936825;28;19927;-43
2023/04/14 08:12:45;;;;;;;;;;;;;;;17.28;90.00;98062.63;4935388;28;19926;-43
2023/04/14 08:15:11;;;;;;;;;;;;;;;17.15;87.51;98057.47;4936990;28;19928;-43
2023/04/14 08:17:36;;;;;;;;;;;;;;;16.86;81.73;98018.03;4934638;28;20454;-43
2023/04/14 08:20:02;;;;;;;;;;;;;;;16.59;83.66;98047.66;4936736;28;20316;-42
2023/04/14 08:22:27;;;;;;;;;;;;;;;19.55;82.03;98008.13;4950978;28;20437;-42
2023/04/14 08:24:52;;;;;;;;;;;;;;;20.78;75.02;97971.31;4935193;28;20500;-43
2023/04/14 08:27:17;;;;;;;;;;;;;;;17.88;77.41;98008.63;4933829;28;20272;-44
2023/04/14 08:29:42;;;;;;;;;;;;;;;16.85;84.14;98058.78;4935832;28;20349;-43
2023/04/14 08:32:08;;;;;;;;;;;;;;;19.61;81.92;98009.38;4938976;28;20378;-43
2023/04/14 08:34:33;;;;;;;;;;;;;;;19.22;77.00;97985.69;4936111;28;20453;-43
2023/04/14 08:36:59;;;;;;;;;;;;;;;18.51;78.74;98003.66;4930949;28;20395;-43
2023/04/14 08:39:25;;;;;;;;;;;;;;;18.21;79.27;98009.56;4932622;28;19982;-43
2023/04/14 08:41:50;;;;;;;;;;;;;;;20.48;76.34;97973.06;4933311;28;19991;-42
2023/04/14 08:44:15;;;;;;;;;;;;;;;17.91;80.15;98019.66;4933251;28;20089;-43
2023/04/14 08:46:41;;;;;;;;;;;;;;;17.75;81.92;98029.56;4931167;28;20649;-43
2023/04/14 08:49:07;;;;;;;;;;;;;;;18.53;77.46;97988.72;4933511;28;19995;-43
2023/04/14 08:51:32;;;;;;;;;;;;;;;16.70;83.60;98042.53;4932089;28;19957;-42
2023/04/14 08:53:57;;;;;;;;;;;;;;;18.36;80.35;97990.09;4932892;28;19926;-43
2023/04/14 08:56:23;;;;;;;;;;;;;;;17.70;82.23;98031.72;4928983;28;20139;-43
2023/04/14 08:58:48;;;;;;;;;;;;;;;18.96;75.59;97957.38;4933774;28;20420;-43
2023/04/14 09:01:13;;;;;;;;;;;;;;;19.19;76.49;97958.06;4931982;28;20507;-43
2023/04/14 09:03:39;;;;;;;;;;;;;;;17.12;80.82;98018.69;4934670;28;19922;-43
2023/04/14 09:06:04;;;;;;;;;;;;;;;18.50;80.45;97991.59;4931894;28;19972;-43
2023/04/14 09:08:32;;;;;;;;;;;;;;;18.91;79.02;97982.19;4931522;28;19926;-43
2023/04/14 09:10:59;;;;;;;;;;;;;;;21.01;71.31;97913.41;4946309;28;20467;-42
2023/04/14 09:13:25;;;;;;;;;;;;;;;20.91;71.57;97923.06;4930315;28;20669;-44
2023/04/14 09:15:50;;;;;;;;;;;;;;;19.19;71.79;97944.19;4931491;28;19926;-43
2023/04/14 09:18:16;;;;;;;;;;;;;;;17.85;74.92;97978.44;4930637;28;20911;-43
2023/04/14 09:20:41;;;;;;;;;;;;;;;20.11;81.02;97978.09;4932462;28;19932;-43
2023/04/14 09:23:07;;;;;;;;;;;;;;;19.50;76.84;97952.88;4932649;28;19922;-43
2023/04/14 09:25:32;;;;;;;;;;;;;;;20.08;69.56;97909.59;4948624;28;19930;-43
2023/04/14 09:27:57;;;;;;;;;;;;;;;19.64;75.32;97939.44;4935237;28;19980;-43
2023/04/14 09:30:22;;;;;;;;;;;;;;;20.21;74.57;97941.53;4934854;28;19926;-42
2023/04/14 09:32:54;;;;;;;;;;;;;;;20.38;75.33;97943.47;4933254;28;19971;-43
2023/04/14 09:35:19;;;;;;;;;;;;;;;19.79;72.99;97928.66;4934847;28;19949;-43
2023/04/14 09:37:47;;;;;;;;;;;;;;;19.68;72.99;97933.94;4935921;28;19939;-43
2023/04/14 09:40:28;;;;;;;;;;;;;;;20.82;71.98;97922.97;4936537;28;20011;-43
2023/04/14 09:42:54;;;;;;;;;;;;;;;18.97;72.01;97926.88;4936543;28;20013;-42
2023/04/14 09:45:21;;;;;;;;;;;;;;;19.84;74.32;97942.13;4940422;28;19924;-42
2023/04/14 09:47:46;;;;;;;;;;;;;;;20.17;77.46;97959.25;4936343;28;20010;-42
2023/04/14 09:50:11;;;;;;;;;;;;;;;21.37;73.46;97913.56;4935023;28;19925;-43
2023/04/14 09:52:37;;;;;;;;;;;;;;;19.64;73.98;97939.44;4940614;28;20501;-43
2023/04/14 09:55:09;;;;;;;;;;;;;;;19.90;75.04;97941.59;4938548;28;20791;-43
2023/04/14 09:57:36;;;;;;;;;;;;;;;20.97;69.04;97891.13;4939408;28;19926;-42
2023/04/14 10:00:02;;;;;;;;;;;;;;;20.00;70.95;97911.09;4941736;28;19980;-42
2023/04/14 10:02:27;;;;;;;;;;;;;;;18.74;78.10;97962.69;4942161;28;20720;-43
2023/04/14 10:05:03;;;;;;;;;;;;;;;20.77;73.41;97906.84;4941488;28;19957;-42
2023/04/14 10:07:29;;;;;;;;;;;;;;;20.87;74.36;97918.13;4940373;28;20001;-42
2023/04/14 10:09:54;;;;;;;;;;;;;;;20.38;68.00;97880.69;4941113;28;19930;-42
2023/04/14 10:12:20;;;;;;;;;;;;;;;22.16;72.40;97885.97;4940586;28;19960;-43
2023/04/14 10:14:45;;;;;;;;;;;;;;;20.35;72.38;97911.53;4941420;28;19968;-42
2023/04/14 10:17:12;;;;;;;;;;;;;;;19.79;74.74;97937.31;4941056;28;20614;-43
2023/04/14 10:19:37;;;;;;;;;;;;;;;20.66;72.36;97893.91;4938987;28;20414;-42
2023/04/14 10:22:03;;;;;;;;;;;;;;;20.05;70.71;97890.59;4941132;28;19992;-42
2023/04/14 10:24:29;;;;;;;;;;;;;;;19.42;72.52;97909.09;4940243;28;19929;-43
2023/04/14 10:26:54;;;;;;;;;;;;;;;19.56;71.22;97894.88;4953789;28;20037;-43
2023/04/14 10:29:20;;;;;;;;;;;;;;;20.73;71.78;97888.94;4939666;28;20376;-42
2023/04/14 10:31:49;;;;;;;;;;;;;;;22.20;71.57;97875.03;4941128;28;20101;-43
2023/04/14 10:34:17;;;;;;;;;;;;;;;21.28;72.31;97883.84;4938000;28;20272;-43
2023/04/14 10:36:42;;;;;;;;;;;;;;;20.93;73.36;97894.97;4941030;28;20056;-43
2023/04/14 10:39:09;;;;;;;;;;;;;;;20.26;68.86;97871.34;4936490;28;19927;-43
2023/04/14 10:41:46;;;;;;;;;;;;;;;22.44;71.74;97861.34;4934033;28;20391;-43
2023/04/14 10:44:21;;;;;;;;;;;;;;;19.65;83.92;97975.03;4937138;28;19921;-43
2023/04/14 10:46:47;;;;;;;;;;;;;;;18.83;83.66;97963.72;4935031;28;20256;-45
2023/04/14 10:49:12;;;;;;;;;;;;;;;21.56;75.55;97871.59;4933810;28;19950;-44
2023/04/14 10:51:37;;;;;;;;;;;;;;;20.53;75.77;97893.38;4934778;28;20014;-43
2023/04/14 10:54:03;;;;;;;;;;;;;;;20.28;76.01;97898.19;4936061;28;20746;-41
2023/04/14 10:56:28;;;;;;;;;;;;;;;19.02;74.06;97898.63;4947851;28;20223;-44
2023/04/14 10:58:54;;;;;;;;;;;;;;;18.64;75.86;97915.66;4947894;28;20097;-43
2023/04/14 11:01:24;;;;;;;;;;;;;;;20.88;66.19;97830.78;4933809;28;19926;-44
2023/04/14 11:03:50;;;;;;;;;;;;;;;21.62;73.41;97875.41;4934133;28;20423;-43
2023/04/14 11:06:34;;;;;;;;;;;;;;;22.27;69.87;97849.06;4934451;28;19922;-43
2023/04/14 11:08:59;;;;;;;;;;;;;;;21.48;66.12;97827.81;4943126;28;19928;-43
2023/04/14 11:11:26;;;;;;;;;;;;;;;20.37;64.70;97820.72;4936543;28;19926;-43
2023/04/14 11:14:09;;;;;;;;;;;;;;;20.87;62.43;97799.56;4934574;28;19926;-43
2023/04/14 11:16:34;;;;;;;;;;;;;;;19.88;67.65;97833.78;4935130;28;19949;-43
2023/04/14 11:19:00;;;;;;;;;;;;;;;19.26;67.55;97845.31;4929803;28;19923;-43
2023/04/14 11:21:28;;;;;;;;;;;;;;;19.71;67.37;97819.59;4936273;28;20263;-43
2023/04/14 11:23:53;;;;;;;;;;;;;;;21.37;64.33;97793.94;4937054;28;19992;-43
2023/04/14 11:26:18;;;;;;;;;;;;;;;20.02;66.15;97822.91;4931645;28;19997;-43
2023/04/14 11:28:44;;;;;;;;;;;;;;;18.92;71.07;97856.00;4949609;28;19940;-43
2023/04/14 11:31:10;;;;;;;;;;;;;;;19.13;69.60;97851.56;4930829;28;20116;-43
2023/04/14 11:33:36;;;;;;;;;;;;;;;20.17;68.00;97830.34;4935895;28;19919;-43
2023/04/14 11:36:02;;;;;;;;;;;;;;;20.19;64.62;97802.28;4936405;28;19958;-43
2023/04/14 11:38:28;;;;;;;;;;;;;;;19.98;62.27;97800.66;4934256;28;22082;-43
2023/04/14 11:40:53;;;;;;;;;;;;;;;21.38;67.58;97815.72;4931313;28;20396;-43
2023/04/14 11:43:19;;;;;;;;;;;;;;;20.64;69.68;97838.28;4935753;28;20259;-43
2023/04/14 11:45:45;;;;;;;;;;;;;;;21.57;66.25;97794.66;4932940;28;20389;-43
2023/04/14 11:48:11;;;;;;;;;;;;;;;19.18;66.35;97815.47;4934218;28;20173;-43
2023/04/14 11:50:37;;;;;;;;;;;;;;;21.17;68.21;97808.91;4928050;28;19926;-43
2023/04/14 11:53:12;;;;;;;;;;;;;;;22.94;63.81;97768.81;4938510;28;19961;-43
2023/04/14 11:55:42;;;;;;;;;;;;;;;20.76;63.97;97805.78;4935307;28;20042;-43
2023/04/14 11:58:07;;;;;;;;;;;;;;;19.99;65.91;97797.06;4939010;28;19922;-43
2023/04/14 12:00:33;;;;;;;;;;;;;;;22.10;65.32;97772.88;4936671;28;19922;-43
2023/04/14 12:03:01;;;;;;;;;;;;;;;20.85;62.91;97778.75;4934065;28;20018;-43
2023/04/14 12:05:30;;;;;;;;;;;;;;;21.88;65.75;97784.63;4934160;28;20357;-43
2023/04/14 12:08:03;;;;;;;;;;;;;;;21.48;68.60;97809.47;4934047;28;20293;-43
2023/04/14 12:10:28;;;;;;;;;;;;;;;21.01;63.27;97775.50;4930658;28;20319;-43
2023/04/14 12:13:04;;;;;;;;;;;;;;;20.02;59.83;97765.41;4932592;28;19925;-43
2023/04/14 12:15:31;;;;;;;;;;;;;;;20.74;59.42;97755.38;4935022;28;20690;-43
2023/04/14 12:17:56;;;;;;;;;;;;;;;21.54;61.31;97768.75;4947979;28;20192;-43
2023/04/14 12:20:21;;;;;;;;;;;;;;;20.92;56.85;97736.31;4931948;28;19965;-44
2023/04/14 12:22:48;;;;;;;;;;;;;;;20.35;60.13;97770.34;4932667;28;19928;-43
2023/04/14 12:25:13;;;;;;;;;;;;;;;20.84;58.70;97748.31;4932391;28;19926;-43
2023/04/14 12:27:38;;;;;;;;;;;;;;;21.99;59.29;97741.66;4934212;28;19926;-44
2023/04/14 12:30:04;;;;;;;;;;;;;;;23.03;59.17;97734.72;4934006;28;19922;-43
2023/04/14 12:32:36;;;;;;;;;;;;;;;23.31;58.52;97730.03;4933231;28;20196;-44
2023/04/14 12:35:01;;;;;;;;;;;;;;;24.63;56.94;97719.38;4931914;28;19918;-43
2023/04/14 12:37:27;;;;;;;;;;;;;;;22.51;54.94;97725.94;4934374;28;19922;-43
2023/04/14 12:39:57;;;;;;;;;;;;;;;23.99;51.96;97694.78;4938117;28;19924;-43